sensor_id;sensor_type;location;lat;lon;timestamp;P1;durP1;ratioP1;P2;durP2;ratioP2
28629;SDS011;15817;42.130;24.762;2024-01-16T00:01:28;61.53;;;34.38;;
28629;SDS011;15817;42.130;24.762;2024-01-16T00:03:53;57.42;;;32.80;;
28629;SDS011;15817;42.130;24.762;2024-01-16T00:06:22;59.40;;;31.42;;
28629;SDS011;15817;42.130;24.762;2024-01-16T00:08:47;55.03;;;31.92;;
28629;SDS011;15817;42.130;24.762;2024-01-16T00:11:13;55.75;;;32.05;;
28629;SDS011;15817;42.130;24.762;2024-01-16T00:13:39;59.08;;;31.35;;
28629;SDS011;15817;42.130;24.762;2024-01-16T00:16:05;53.55;;;32.35;;
28629;SDS011;15817;42.130;24.762;2024-01-16T00:18:31;53.67;;;33.30;;
28629;SDS011;15817;42.130;24.762;2024-01-16T00:20:57;56.05;;;32.75;;
28629;SDS011;15817;42.130;24.762;2024-01-16T00:23:23;56.70;;;31.90;;
28629;SDS011;15817;42.130;24.762;2024-01-16T00:25:48;53.05;;;31.23;;
28629;SDS011;15817;42.130;24.762;2024-01-16T00:28:14;56.70;;;31.63;;
28629;SDS011;15817;42.130;24.762;2024-01-16T00:30:40;54.17;;;32.28;;
28629;SDS011;15817;42.130;24.762;2024-01-16T00:33:06;51.80;;;31.50;;
28629;SDS011;15817;42.130;24.762;2024-01-16T00:35:32;62.95;;;31.95;;
28629;SDS011;15817;42.130;24.762;2024-01-16T00:37:58;52.08;;;31.40;;
28629;SDS011;15817;42.130;24.762;2024-01-16T00:40:23;51.58;;;30.50;;
28629;SDS011;15817;42.130;24.762;2024-01-16T00:42:52;54.50;;;32.00;;
28629;SDS011;15817;42.130;24.762;2024-01-16T00:45:18;58.35;;;32.78;;
28629;SDS011;15817;42.130;24.762;2024-01-16T00:47:44;56.90;;;33.17;;
28629;SDS011;15817;42.130;24.762;2024-01-16T00:50:14;53.47;;;31.83;;
28629;SDS011;15817;42.130;24.762;2024-01-16T00:52:40;64.30;;;30.55;;
28629;SDS011;15817;42.130;24.762;2024-01-16T00:55:06;58.75;;;31.55;;
28629;SDS011;15817;42.130;24.762;2024-01-16T00:57:32;54.65;;;30.02;;
28629;SDS011;15817;42.130;24.762;2024-01-16T00:59:57;59.65;;;31.40;;
28629;SDS011;15817;42.130;24.762;2024-01-16T01:02:29;52.38;;;30.95;;
28629;SDS011;15817;42.130;24.762;2024-01-16T01:04:55;56.08;;;32.10;;
28629;SDS011;15817;42.130;24.762;2024-01-16T01:07:23;55.20;;;31.65;;
28629;SDS011;15817;42.130;24.762;2024-01-16T01:10:00;57.85;;;33.22;;
28629;SDS011;15817;42.130;24.762;2024-01-16T01:12:26;53.97;;;32.45;;
28629;SDS011;15817;42.130;24.762;2024-01-16T01:14:52;50.88;;;32.28;;
28629;SDS011;15817;42.130;24.762;2024-01-16T01:17:18;58.10;;;33.58;;
28629;SDS011;15817;42.130;24.762;2024-01-16T01:19:44;51.90;;;31.13;;
28629;SDS011;15817;42.130;24.762;2024-01-16T01:22:14;55.78;;;31.70;;
28629;SDS011;15817;42.130;24.762;2024-01-16T01:24:40;57.08;;;32.17;;
28629;SDS011;15817;42.130;24.762;2024-01-16T01:27:05;60.72;;;32.17;;
28629;SDS011;15817;42.130;24.762;2024-01-16T01:29:31;57.38;;;31.48;;
28629;SDS011;15817;42.130;24.762;2024-01-16T01:31:57;58.38;;;31.67;;
28629;SDS011;15817;42.130;24.762;2024-01-16T01:34:23;60.60;;;33.78;;
28629;SDS011;15817;42.130;24.762;2024-01-16T01:36:49;52.65;;;31.73;;
28629;SDS011;15817;42.130;24.762;2024-01-16T01:39:15;54.30;;;31.52;;
28629;SDS011;15817;42.130;24.762;2024-01-16T01:41:43;54.45;;;31.23;;
28629;SDS011;15817;42.130;24.762;2024-01-16T01:44:22;57.03;;;32.97;;
28629;SDS011;15817;42.130;24.762;2024-01-16T01:46:50;53.15;;;32.88;;
28629;SDS011;15817;42.130;24.762;2024-01-16T01:49:16;58.00;;;32.83;;
28629;SDS011;15817;42.130;24.762;2024-01-16T01:51:42;54.25;;;33.17;;
28629;SDS011;15817;42.130;24.762;2024-01-16T01:54:09;53.70;;;32.92;;
28629;SDS011;15817;42.130;24.762;2024-01-16T01:56:37;58.55;;;32.63;;
28629;SDS011;15817;42.130;24.762;2024-01-16T01:59:03;56.72;;;32.47;;
28629;SDS011;15817;42.130;24.762;2024-01-16T02:01:29;53.10;;;31.08;;
28629;SDS011;15817;42.130;24.762;2024-01-16T02:03:57;53.20;;;31.73;;
28629;SDS011;15817;42.130;24.762;2024-01-16T02:06:24;53.42;;;31.60;;
28629;SDS011;15817;42.130;24.762;2024-01-16T02:08:50;54.22;;;32.40;;
28629;SDS011;15817;42.130;24.762;2024-01-16T02:11:17;48.15;;;30.75;;
28629;SDS011;15817;42.130;24.762;2024-01-16T02:13:43;53.17;;;32.50;;
28629;SDS011;15817;42.130;24.762;2024-01-16T02:19:07;54.88;;;32.78;;
28629;SDS011;15817;42.130;24.762;2024-01-16T02:21:38;51.88;;;32.33;;
28629;SDS011;15817;42.130;24.762;2024-01-16T02:24:24;52.35;;;32.13;;
28629;SDS011;15817;42.130;24.762;2024-01-16T02:26:50;52.75;;;31.98;;
28629;SDS011;15817;42.130;24.762;2024-01-16T02:29:17;55.90;;;32.10;;
28629;SDS011;15817;42.130;24.762;2024-01-16T02:31:43;55.50;;;31.80;;
28629;SDS011;15817;42.130;24.762;2024-01-16T02:34:09;52.28;;;31.60;;
28629;SDS011;15817;42.130;24.762;2024-01-16T02:36:34;49.55;;;31.20;;
28629;SDS011;15817;42.130;24.762;2024-01-16T02:39:00;52.30;;;31.33;;
28629;SDS011;15817;42.130;24.762;2024-01-16T02:41:26;54.42;;;31.83;;
28629;SDS011;15817;42.130;24.762;2024-01-16T02:43:52;54.72;;;30.02;;
28629;SDS011;15817;42.130;24.762;2024-01-16T02:46:18;49.53;;;29.42;;
28629;SDS011;15817;42.130;24.762;2024-01-16T02:48:44;49.92;;;30.25;;
28629;SDS011;15817;42.130;24.762;2024-01-16T02:51:10;49.95;;;29.75;;
28629;SDS011;15817;42.130;24.762;2024-01-16T02:53:36;50.25;;;30.25;;
28629;SDS011;15817;42.130;24.762;2024-01-16T02:56:05;56.83;;;30.70;;
28629;SDS011;15817;42.130;24.762;2024-01-16T02:58:31;50.97;;;30.10;;
28629;SDS011;15817;42.130;24.762;2024-01-16T03:00:59;51.03;;;30.60;;
28629;SDS011;15817;42.130;24.762;2024-01-16T03:03:32;61.75;;;31.48;;
28629;SDS011;15817;42.130;24.762;2024-01-16T03:05:58;54.63;;;32.17;;
28629;SDS011;15817;42.130;24.762;2024-01-16T03:08:24;53.33;;;32.88;;
28629;SDS011;15817;42.130;24.762;2024-01-16T03:10:50;54.92;;;32.55;;
28629;SDS011;15817;42.130;24.762;2024-01-16T03:13:17;54.03;;;30.83;;
28629;SDS011;15817;42.130;24.762;2024-01-16T03:15:45;56.30;;;32.63;;
28629;SDS011;15817;42.130;24.762;2024-01-16T03:18:11;54.22;;;31.52;;
28629;SDS011;15817;42.130;24.762;2024-01-16T03:20:37;60.88;;;32.42;;
28629;SDS011;15817;42.130;24.762;2024-01-16T03:23:06;53.15;;;31.17;;
28629;SDS011;15817;42.130;24.762;2024-01-16T03:25:32;60.05;;;31.77;;
28629;SDS011;15817;42.130;24.762;2024-01-16T03:28:06;66.18;;;32.83;;
28629;SDS011;15817;42.130;24.762;2024-01-16T03:30:35;54.42;;;32.30;;
28629;SDS011;15817;42.130;24.762;2024-01-16T03:33:01;56.65;;;32.10;;
28629;SDS011;15817;42.130;24.762;2024-01-16T03:35:27;50.95;;;30.90;;
28629;SDS011;15817;42.130;24.762;2024-01-16T03:37:53;55.83;;;32.25;;
28629;SDS011;15817;42.130;24.762;2024-01-16T03:40:21;53.20;;;31.13;;
28629;SDS011;15817;42.130;24.762;2024-01-16T03:42:47;49.70;;;30.08;;
28629;SDS011;15817;42.130;24.762;2024-01-16T03:45:17;47.72;;;29.45;;
28629;SDS011;15817;42.130;24.762;2024-01-16T03:47:58;49.55;;;29.75;;
28629;SDS011;15817;42.130;24.762;2024-01-16T03:50:31;50.45;;;29.58;;
28629;SDS011;15817;42.130;24.762;2024-01-16T03:52:57;57.53;;;32.47;;
28629;SDS011;15817;42.130;24.762;2024-01-16T03:55:36;53.42;;;30.15;;
28629;SDS011;15817;42.130;24.762;2024-01-16T03:58:02;53.30;;;31.83;;
28629;SDS011;15817;42.130;24.762;2024-01-16T04:00:28;58.30;;;30.90;;
28629;SDS011;15817;42.130;24.762;2024-01-16T04:02:54;56.33;;;32.03;;
28629;SDS011;15817;42.130;24.762;2024-01-16T04:05:19;64.50;;;32.90;;
28629;SDS011;15817;42.130;24.762;2024-01-16T04:07:47;58.45;;;33.35;;
28629;SDS011;15817;42.130;24.762;2024-01-16T04:10:17;60.75;;;32.50;;
28629;SDS011;15817;42.130;24.762;2024-01-16T04:12:43;58.80;;;32.30;;
28629;SDS011;15817;42.130;24.762;2024-01-16T04:15:11;54.60;;;31.75;;
28629;SDS011;15817;42.130;24.762;2024-01-16T04:17:37;56.63;;;31.67;;
28629;SDS011;15817;42.130;24.762;2024-01-16T04:20:06;58.00;;;31.05;;
28629;SDS011;15817;42.130;24.762;2024-01-16T04:22:34;55.47;;;31.55;;
28629;SDS011;15817;42.130;24.762;2024-01-16T04:25:03;54.38;;;33.08;;
28629;SDS011;15817;42.130;24.762;2024-01-16T04:27:30;62.38;;;33.70;;
28629;SDS011;15817;42.130;24.762;2024-01-16T04:30:01;60.03;;;32.35;;
28629;SDS011;15817;42.130;24.762;2024-01-16T04:32:39;57.85;;;32.58;;
28629;SDS011;15817;42.130;24.762;2024-01-16T04:35:05;54.70;;;32.28;;
28629;SDS011;15817;42.130;24.762;2024-01-16T04:37:34;53.97;;;31.23;;
28629;SDS011;15817;42.130;24.762;2024-01-16T04:40:08;65.32;;;32.72;;
28629;SDS011;15817;42.130;24.762;2024-01-16T04:42:34;52.50;;;31.85;;
28629;SDS011;15817;42.130;24.762;2024-01-16T04:45:00;55.00;;;33.03;;
28629;SDS011;15817;42.130;24.762;2024-01-16T04:47:29;57.13;;;33.03;;
28629;SDS011;15817;42.130;24.762;2024-01-16T04:49:56;65.68;;;32.78;;
28629;SDS011;15817;42.130;24.762;2024-01-16T04:52:22;65.38;;;34.22;;
28629;SDS011;15817;42.130;24.762;2024-01-16T04:54:48;63.15;;;34.08;;
28629;SDS011;15817;42.130;24.762;2024-01-16T04:57:14;58.80;;;32.75;;
28629;SDS011;15817;42.130;24.762;2024-01-16T04:59:45;68.57;;;33.90;;
28629;SDS011;15817;42.130;24.762;2024-01-16T05:02:14;65.18;;;34.35;;
28629;SDS011;15817;42.130;24.762;2024-01-16T05:04:42;57.85;;;33.45;;
28629;SDS011;15817;42.130;24.762;2024-01-16T05:07:17;60.28;;;32.83;;
28629;SDS011;15817;42.130;24.762;2024-01-16T05:12:40;56.45;;;31.15;;
28629;SDS011;15817;42.130;24.762;2024-01-16T05:15:10;58.15;;;31.77;;
28629;SDS011;15817;42.130;24.762;2024-01-16T05:17:39;55.72;;;31.00;;
28629;SDS011;15817;42.130;24.762;2024-01-16T05:20:08;56.42;;;30.85;;
28629;SDS011;15817;42.130;24.762;2024-01-16T05:22:35;52.85;;;30.40;;
28629;SDS011;15817;42.130;24.762;2024-01-16T05:25:03;56.25;;;31.08;;
28629;SDS011;15817;42.130;24.762;2024-01-16T05:27:33;66.18;;;33.10;;
28629;SDS011;15817;42.130;24.762;2024-01-16T05:29:59;58.80;;;30.10;;
28629;SDS011;15817;42.130;24.762;2024-01-16T05:32:38;56.97;;;29.33;;
28629;SDS011;15817;42.130;24.762;2024-01-16T05:35:07;60.63;;;27.60;;
28629;SDS011;15817;42.130;24.762;2024-01-16T05:37:47;44.38;;;25.05;;
28629;SDS011;15817;42.130;24.762;2024-01-16T05:40:16;45.10;;;24.77;;
28629;SDS011;15817;42.130;24.762;2024-01-16T05:42:42;45.92;;;24.83;;
28629;SDS011;15817;42.130;24.762;2024-01-16T05:45:21;49.28;;;24.08;;
28629;SDS011;15817;42.130;24.762;2024-01-16T05:47:55;62.85;;;22.95;;
28629;SDS011;15817;42.130;24.762;2024-01-16T05:50:21;39.33;;;22.90;;
28629;SDS011;15817;42.130;24.762;2024-01-16T05:52:47;38.92;;;22.80;;
28629;SDS011;15817;42.130;24.762;2024-01-16T05:55:19;41.17;;;21.67;;
28629;SDS011;15817;42.130;24.762;2024-01-16T05:57:49;46.22;;;22.63;;
28629;SDS011;15817;42.130;24.762;2024-01-16T06:00:43;43.58;;;21.88;;
28629;SDS011;15817;42.130;24.762;2024-01-16T06:03:12;39.83;;;22.20;;
28629;SDS011;15817;42.130;24.762;2024-01-16T06:05:38;44.72;;;22.05;;
28629;SDS011;15817;42.130;24.762;2024-01-16T06:08:39;46.63;;;23.38;;
28629;SDS011;15817;42.130;24.762;2024-01-16T06:11:17;34.70;;;21.23;;
28629;SDS011;15817;42.130;24.762;2024-01-16T06:13:46;42.38;;;20.73;;
28629;SDS011;15817;42.130;24.762;2024-01-16T06:16:17;39.60;;;18.35;;
28629;SDS011;15817;42.130;24.762;2024-01-16T06:18:49;30.70;;;17.58;;
28629;SDS011;15817;42.130;24.762;2024-01-16T06:21:20;37.78;;;17.38;;
28629;SDS011;15817;42.130;24.762;2024-01-16T06:23:46;31.10;;;15.73;;
28629;SDS011;15817;42.130;24.762;2024-01-16T06:29:23;22.75;;;12.40;;
28629;SDS011;15817;42.130;24.762;2024-01-16T06:31:54;23.00;;;12.32;;
28629;SDS011;15817;42.130;24.762;2024-01-16T06:34:38;25.45;;;10.85;;
28629;SDS011;15817;42.130;24.762;2024-01-16T06:37:21;15.52;;;8.20;;
28629;SDS011;15817;42.130;24.762;2024-01-16T06:39:47;15.02;;;8.60;;
28629;SDS011;15817;42.130;24.762;2024-01-16T06:42:15;16.80;;;7.88;;
28629;SDS011;15817;42.130;24.762;2024-01-16T06:44:41;10.68;;;7.00;;
28629;SDS011;15817;42.130;24.762;2024-01-16T06:47:10;10.65;;;6.65;;
28629;SDS011;15817;42.130;24.762;2024-01-16T06:49:35;12.85;;;6.90;;
28629;SDS011;15817;42.130;24.762;2024-01-16T06:52:06;13.13;;;6.80;;
28629;SDS011;15817;42.130;24.762;2024-01-16T06:54:35;9.60;;;6.13;;
28629;SDS011;15817;42.130;24.762;2024-01-16T06:57:14;8.90;;;5.93;;
28629;SDS011;15817;42.130;24.762;2024-01-16T06:59:40;6.93;;;5.18;;
28629;SDS011;15817;42.130;24.762;2024-01-16T07:02:06;12.43;;;5.80;;
28629;SDS011;15817;42.130;24.762;2024-01-16T07:04:33;10.80;;;5.07;;
28629;SDS011;15817;42.130;24.762;2024-01-16T07:06:59;13.95;;;5.22;;
28629;SDS011;15817;42.130;24.762;2024-01-16T07:09:26;12.00;;;4.82;;
28629;SDS011;15817;42.130;24.762;2024-01-16T07:11:52;5.47;;;3.97;;
28629;SDS011;15817;42.130;24.762;2024-01-16T07:14:19;11.05;;;4.18;;
28629;SDS011;15817;42.130;24.762;2024-01-16T07:16:45;10.35;;;4.55;;
28629;SDS011;15817;42.130;24.762;2024-01-16T07:19:11;12.02;;;5.45;;
28629;SDS011;15817;42.130;24.762;2024-01-16T07:21:37;5.38;;;4.15;;
28629;SDS011;15817;42.130;24.762;2024-01-16T07:24:03;9.10;;;4.43;;
28629;SDS011;15817;42.130;24.762;2024-01-16T07:26:29;9.57;;;4.70;;
28629;SDS011;15817;42.130;24.762;2024-01-16T07:29:02;30.85;;;5.38;;
28629;SDS011;15817;42.130;24.762;2024-01-16T07:31:30;12.35;;;4.85;;
28629;SDS011;15817;42.130;24.762;2024-01-16T07:33:56;11.95;;;4.68;;
28629;SDS011;15817;42.130;24.762;2024-01-16T07:36:24;7.82;;;3.83;;
28629;SDS011;15817;42.130;24.762;2024-01-16T07:38:56;10.23;;;4.13;;
28629;SDS011;15817;42.130;24.762;2024-01-16T07:41:25;6.03;;;3.90;;
28629;SDS011;15817;42.130;24.762;2024-01-16T07:44:01;8.95;;;5.13;;
28629;SDS011;15817;42.130;24.762;2024-01-16T07:46:27;6.00;;;3.92;;
28629;SDS011;15817;42.130;24.762;2024-01-16T07:48:56;30.77;;;4.53;;
28629;SDS011;15817;42.130;24.762;2024-01-16T07:51:38;22.17;;;4.63;;
28629;SDS011;15817;42.130;24.762;2024-01-16T07:54:05;21.55;;;5.00;;
28629;SDS011;15817;42.130;24.762;2024-01-16T07:57:11;10.55;;;3.92;;
28629;SDS011;15817;42.130;24.762;2024-01-16T07:59:37;13.45;;;3.67;;
28629;SDS011;15817;42.130;24.762;2024-01-16T08:02:04;14.00;;;4.70;;
28629;SDS011;15817;42.130;24.762;2024-01-16T08:04:52;8.88;;;4.40;;
28629;SDS011;15817;42.130;24.762;2024-01-16T08:07:33;21.83;;;4.22;;
28629;SDS011;15817;42.130;24.762;2024-01-16T08:10:05;6.75;;;3.53;;
28629;SDS011;15817;42.130;24.762;2024-01-16T08:12:33;5.90;;;3.17;;
28629;SDS011;15817;42.130;24.762;2024-01-16T08:14:59;13.30;;;3.75;;
28629;SDS011;15817;42.130;24.762;2024-01-16T08:17:28;17.40;;;3.00;;
28629;SDS011;15817;42.130;24.762;2024-01-16T08:19:53;11.75;;;3.13;;
28629;SDS011;15817;42.130;24.762;2024-01-16T08:22:19;13.57;;;3.97;;
28629;SDS011;15817;42.130;24.762;2024-01-16T08:24:47;15.77;;;3.17;;
28629;SDS011;15817;42.130;24.762;2024-01-16T08:27:13;6.63;;;3.20;;
28629;SDS011;15817;42.130;24.762;2024-01-16T08:29:39;10.25;;;2.85;;
28629;SDS011;15817;42.130;24.762;2024-01-16T08:32:05;17.83;;;3.28;;
28629;SDS011;15817;42.130;24.762;2024-01-16T08:34:31;11.63;;;3.95;;
28629;SDS011;15817;42.130;24.762;2024-01-16T08:36:57;5.43;;;2.88;;
28629;SDS011;15817;42.130;24.762;2024-01-16T08:39:25;19.17;;;3.70;;
28629;SDS011;15817;42.130;24.762;2024-01-16T08:41:53;24.50;;;3.83;;
28629;SDS011;15817;42.130;24.762;2024-01-16T08:44:20;15.23;;;3.85;;
28629;SDS011;15817;42.130;24.762;2024-01-16T08:46:46;11.20;;;4.05;;
28629;SDS011;15817;42.130;24.762;2024-01-16T08:49:22;23.65;;;4.78;;
28629;SDS011;15817;42.130;24.762;2024-01-16T08:51:50;8.77;;;3.58;;
28629;SDS011;15817;42.130;24.762;2024-01-16T08:54:16;27.20;;;4.60;;
28629;SDS011;15817;42.130;24.762;2024-01-16T08:56:42;19.17;;;4.18;;
28629;SDS011;15817;42.130;24.762;2024-01-16T08:59:08;10.50;;;3.03;;
28629;SDS011;15817;42.130;24.762;2024-01-16T09:01:37;6.85;;;2.72;;
28629;SDS011;15817;42.130;24.762;2024-01-16T09:04:09;6.32;;;3.20;;
28629;SDS011;15817;42.130;24.762;2024-01-16T09:06:35;7.22;;;2.65;;
28629;SDS011;15817;42.130;24.762;2024-01-16T09:09:08;7.20;;;2.92;;
28629;SDS011;15817;42.130;24.762;2024-01-16T09:11:40;17.20;;;3.53;;
28629;SDS011;15817;42.130;24.762;2024-01-16T09:14:11;23.00;;;4.22;;
28629;SDS011;15817;42.130;24.762;2024-01-16T09:16:49;24.55;;;4.18;;
28629;SDS011;15817;42.130;24.762;2024-01-16T09:19:25;21.60;;;3.08;;
28629;SDS011;15817;42.130;24.762;2024-01-16T09:21:54;23.38;;;2.90;;
28629;SDS011;15817;42.130;24.762;2024-01-16T09:24:23;8.45;;;2.83;;
28629;SDS011;15817;42.130;24.762;2024-01-16T09:26:49;7.85;;;2.47;;
28629;SDS011;15817;42.130;24.762;2024-01-16T09:29:19;194.55;;;15.20;;
28629;SDS011;15817;42.130;24.762;2024-01-16T09:31:50;4.88;;;2.10;;
28629;SDS011;15817;42.130;24.762;2024-01-16T09:34:28;25.73;;;3.45;;
28629;SDS011;15817;42.130;24.762;2024-01-16T09:37:00;10.95;;;2.08;;
28629;SDS011;15817;42.130;24.762;2024-01-16T09:39:47;16.45;;;2.78;;
28629;SDS011;15817;42.130;24.762;2024-01-16T09:42:14;9.05;;;2.03;;
28629;SDS011;15817;42.130;24.762;2024-01-16T09:45:27;15.45;;;3.03;;
28629;SDS011;15817;42.130;24.762;2024-01-16T09:51:23;4.88;;;2.10;;
28629;SDS011;15817;42.130;24.762;2024-01-16T09:53:52;12.38;;;2.30;;
28629;SDS011;15817;42.130;24.762;2024-01-16T09:59:57;16.42;;;2.70;;
28629;SDS011;15817;42.130;24.762;2024-01-16T10:02:49;8.30;;;1.55;;
28629;SDS011;15817;42.130;24.762;2024-01-16T10:05:28;19.45;;;2.17;;
28629;SDS011;15817;42.130;24.762;2024-01-16T10:08:13;8.32;;;1.67;;
28629;SDS011;15817;42.130;24.762;2024-01-16T10:11:17;4.65;;;1.35;;
28629;SDS011;15817;42.130;24.762;2024-01-16T10:13:46;13.93;;;1.85;;
28629;SDS011;15817;42.130;24.762;2024-01-16T10:16:12;7.43;;;1.88;;
28629;SDS011;15817;42.130;24.762;2024-01-16T10:18:38;5.97;;;2.17;;
28629;SDS011;15817;42.130;24.762;2024-01-16T10:21:06;21.33;;;2.42;;
28629;SDS011;15817;42.130;24.762;2024-01-16T10:23:47;6.78;;;2.03;;
28629;SDS011;15817;42.130;24.762;2024-01-16T10:26:13;4.75;;;1.52;;
28629;SDS011;15817;42.130;24.762;2024-01-16T10:28:42;11.93;;;1.70;;
28629;SDS011;15817;42.130;24.762;2024-01-16T10:31:12;4.80;;;1.85;;
28629;SDS011;15817;42.130;24.762;2024-01-16T10:33:43;9.93;;;2.00;;
28629;SDS011;15817;42.130;24.762;2024-01-16T10:36:10;13.75;;;2.53;;
28629;SDS011;15817;42.130;24.762;2024-01-16T10:38:40;4.43;;;2.20;;
28629;SDS011;15817;42.130;24.762;2024-01-16T10:41:11;2.90;;;1.70;;
28629;SDS011;15817;42.130;24.762;2024-01-16T10:43:38;6.28;;;1.77;;
28629;SDS011;15817;42.130;24.762;2024-01-16T10:48:44;10.05;;;1.65;;
28629;SDS011;15817;42.130;24.762;2024-01-16T10:51:23;3.88;;;1.88;;
28629;SDS011;15817;42.130;24.762;2024-01-16T10:53:51;13.57;;;2.03;;
28629;SDS011;15817;42.130;24.762;2024-01-16T10:56:34;6.50;;;2.00;;
28629;SDS011;15817;42.130;24.762;2024-01-16T10:59:06;10.13;;;2.00;;
28629;SDS011;15817;42.130;24.762;2024-01-16T11:01:41;6.78;;;1.70;;
28629;SDS011;15817;42.130;24.762;2024-01-16T11:04:13;4.13;;;2.40;;
28629;SDS011;15817;42.130;24.762;2024-01-16T11:06:40;6.22;;;2.50;;
28629;SDS011;15817;42.130;24.762;2024-01-16T11:09:08;8.52;;;1.58;;
28629;SDS011;15817;42.130;24.762;2024-01-16T11:11:34;2.88;;;1.58;;
28629;SDS011;15817;42.130;24.762;2024-01-16T11:14:03;4.68;;;2.17;;
28629;SDS011;15817;42.130;24.762;2024-01-16T11:16:30;7.68;;;2.08;;
28629;SDS011;15817;42.130;24.762;2024-01-16T11:19:00;11.00;;;2.92;;
28629;SDS011;15817;42.130;24.762;2024-01-16T11:21:28;22.85;;;2.92;;
28629;SDS011;15817;42.130;24.762;2024-01-16T11:23:54;5.90;;;1.60;;
28629;SDS011;15817;42.130;24.762;2024-01-16T11:26:26;12.00;;;2.40;;
28629;SDS011;15817;42.130;24.762;2024-01-16T11:31:52;31.80;;;2.92;;
28629;SDS011;15817;42.130;24.762;2024-01-16T11:37:09;11.23;;;1.70;;
28629;SDS011;15817;42.130;24.762;2024-01-16T11:39:36;7.43;;;1.50;;
28629;SDS011;15817;42.130;24.762;2024-01-16T11:42:08;6.38;;;1.70;;
28629;SDS011;15817;42.130;24.762;2024-01-16T11:44:41;1.63;;;1.38;;
28629;SDS011;15817;42.130;24.762;2024-01-16T11:47:20;5.90;;;1.50;;
28629;SDS011;15817;42.130;24.762;2024-01-16T11:49:47;4.15;;;1.70;;
28629;SDS011;15817;42.130;24.762;2024-01-16T11:52:14;8.55;;;1.63;;
28629;SDS011;15817;42.130;24.762;2024-01-16T11:54:43;3.38;;;1.45;;
28629;SDS011;15817;42.130;24.762;2024-01-16T12:00:02;6.00;;;1.42;;
28629;SDS011;15817;42.130;24.762;2024-01-16T12:02:52;7.22;;;1.50;;
28629;SDS011;15817;42.130;24.762;2024-01-16T12:05:21;10.00;;;2.35;;
28629;SDS011;15817;42.130;24.762;2024-01-16T12:07:48;3.35;;;1.63;;
28629;SDS011;15817;42.130;24.762;2024-01-16T12:10:22;8.52;;;2.30;;
28629;SDS011;15817;42.130;24.762;2024-01-16T12:12:49;18.45;;;2.20;;
28629;SDS011;15817;42.130;24.762;2024-01-16T12:15:19;8.52;;;1.77;;
28629;SDS011;15817;42.130;24.762;2024-01-16T12:17:52;3.30;;;1.60;;
28629;SDS011;15817;42.130;24.762;2024-01-16T12:27:56;7.53;;;1.40;;
28629;SDS011;15817;42.130;24.762;2024-01-16T12:30:31;9.23;;;2.13;;
28629;SDS011;15817;42.130;24.762;2024-01-16T12:33:11;20.70;;;1.98;;
28629;SDS011;15817;42.130;24.762;2024-01-16T12:35:45;9.63;;;1.98;;
28629;SDS011;15817;42.130;24.762;2024-01-16T12:38:12;12.85;;;2.05;;
28629;SDS011;15817;42.130;24.762;2024-01-16T12:40:44;2.22;;;1.27;;
28629;SDS011;15817;42.130;24.762;2024-01-16T12:43:13;9.90;;;1.50;;
28629;SDS011;15817;42.130;24.762;2024-01-16T12:45:44;4.22;;;1.40;;
28629;SDS011;15817;42.130;24.762;2024-01-16T12:51:02;4.00;;;1.83;;
28629;SDS011;15817;42.130;24.762;2024-01-16T12:53:29;6.35;;;1.40;;
28629;SDS011;15817;42.130;24.762;2024-01-16T12:56:06;7.55;;;1.42;;
28629;SDS011;15817;42.130;24.762;2024-01-16T12:58:44;6.22;;;1.52;;
28629;SDS011;15817;42.130;24.762;2024-01-16T13:01:27;4.72;;;1.67;;
28629;SDS011;15817;42.130;24.762;2024-01-16T13:03:54;1.67;;;1.30;;
28629;SDS011;15817;42.130;24.762;2024-01-16T13:06:34;5.00;;;1.80;;
28629;SDS011;15817;42.130;24.762;2024-01-16T13:09:04;8.77;;;1.17;;
28629;SDS011;15817;42.130;24.762;2024-01-16T13:11:50;6.82;;;1.70;;
28629;SDS011;15817;42.130;24.762;2024-01-16T13:14:18;7.53;;;1.90;;
28629;SDS011;15817;42.130;24.762;2024-01-16T13:16:46;7.13;;;1.30;;
28629;SDS011;15817;42.130;24.762;2024-01-16T13:19:15;28.70;;;2.78;;
28629;SDS011;15817;42.130;24.762;2024-01-16T13:21:51;3.42;;;1.58;;
28629;SDS011;15817;42.130;24.762;2024-01-16T13:24:26;3.95;;;1.80;;
28629;SDS011;15817;42.130;24.762;2024-01-16T13:27:01;6.75;;;1.40;;
28629;SDS011;15817;42.130;24.762;2024-01-16T13:29:50;7.38;;;1.38;;
28629;SDS011;15817;42.130;24.762;2024-01-16T13:32:16;5.72;;;1.48;;
28629;SDS011;15817;42.130;24.762;2024-01-16T13:34:41;8.05;;;1.70;;
28629;SDS011;15817;42.130;24.762;2024-01-16T13:37:15;5.57;;;1.67;;
28629;SDS011;15817;42.130;24.762;2024-01-16T13:39:47;3.55;;;1.48;;
28629;SDS011;15817;42.130;24.762;2024-01-16T13:42:25;7.65;;;1.73;;
28629;SDS011;15817;42.130;24.762;2024-01-16T13:45:12;8.32;;;1.98;;
28629;SDS011;15817;42.130;24.762;2024-01-16T13:47:45;3.22;;;1.38;;
28629;SDS011;15817;42.130;24.762;2024-01-16T13:50:11;5.85;;;1.30;;
28629;SDS011;15817;42.130;24.762;2024-01-16T13:52:37;5.15;;;1.30;;
28629;SDS011;15817;42.130;24.762;2024-01-16T13:55:08;5.03;;;1.30;;
28629;SDS011;15817;42.130;24.762;2024-01-16T13:57:37;4.82;;;1.80;;
28629;SDS011;15817;42.130;24.762;2024-01-16T14:00:03;3.47;;;1.60;;
28629;SDS011;15817;42.130;24.762;2024-01-16T14:02:47;3.42;;;1.95;;
28629;SDS011;15817;42.130;24.762;2024-01-16T14:05:14;4.07;;;1.45;;
28629;SDS011;15817;42.130;24.762;2024-01-16T14:07:47;7.18;;;1.70;;
28629;SDS011;15817;42.130;24.762;2024-01-16T14:10:21;6.40;;;2.00;;
28629;SDS011;15817;42.130;24.762;2024-01-16T14:12:59;10.38;;;1.95;;
28629;SDS011;15817;42.130;24.762;2024-01-16T14:15:42;8.55;;;1.73;;
28629;SDS011;15817;42.130;24.762;2024-01-16T14:18:17;5.90;;;2.00;;
28629;SDS011;15817;42.130;24.762;2024-01-16T14:21:22;5.72;;;1.63;;
28629;SDS011;15817;42.130;24.762;2024-01-16T14:24:26;7.15;;;1.70;;
28629;SDS011;15817;42.130;24.762;2024-01-16T14:30:43;6.05;;;2.38;;
28629;SDS011;15817;42.130;24.762;2024-01-16T14:33:13;9.32;;;2.00;;
28629;SDS011;15817;42.130;24.762;2024-01-16T14:35:45;3.08;;;2.35;;
28629;SDS011;15817;42.130;24.762;2024-01-16T14:38:19;11.98;;;2.70;;
28629;SDS011;15817;42.130;24.762;2024-01-16T14:40:48;7.35;;;2.25;;
28629;SDS011;15817;42.130;24.762;2024-01-16T14:43:20;9.63;;;2.20;;
28629;SDS011;15817;42.130;24.762;2024-01-16T14:45:49;4.00;;;1.73;;
28629;SDS011;15817;42.130;24.762;2024-01-16T14:48:23;4.68;;;2.40;;
28629;SDS011;15817;42.130;24.762;2024-01-16T14:50:52;13.48;;;2.42;;
28629;SDS011;15817;42.130;24.762;2024-01-16T14:53:23;9.02;;;2.45;;
28629;SDS011;15817;42.130;24.762;2024-01-16T14:55:50;9.73;;;2.47;;
28629;SDS011;15817;42.130;24.762;2024-01-16T14:58:30;6.15;;;1.50;;
28629;SDS011;15817;42.130;24.762;2024-01-16T15:00:56;12.45;;;2.72;;
28629;SDS011;15817;42.130;24.762;2024-01-16T15:03:26;6.32;;;1.50;;
28629;SDS011;15817;42.130;24.762;2024-01-16T15:05:59;5.10;;;1.50;;
28629;SDS011;15817;42.130;24.762;2024-01-16T15:08:30;6.57;;;1.73;;
28629;SDS011;15817;42.130;24.762;2024-01-16T15:11:07;5.82;;;1.75;;
28629;SDS011;15817;42.130;24.762;2024-01-16T15:13:36;9.98;;;1.92;;
28629;SDS011;15817;42.130;24.762;2024-01-16T15:16:14;18.13;;;2.67;;
28629;SDS011;15817;42.130;24.762;2024-01-16T15:18:52;6.30;;;2.55;;
28629;SDS011;15817;42.130;24.762;2024-01-16T15:21:20;3.72;;;1.83;;